Artemis — ZCDM7 — position and weather

sailwx.info

Track history (hours):
 
Tides and Currents Weather Stations Pressure Air Temp Water Temp Dewpoint Dewpoint Depression Visibility Wind Speed Wind Dir Waves Ship Positions

Artemis

Ex "Royal Princess".

Last reported at 2016-Oct-22 00:32 UTC. Time now 2017-Mar-25 19:38 UTC.
Position N 27°11' W 015°54'.
Warning: this ship's position is months out of date.

Length 230.6 m; beam 29.2 m; draft 8 m.

Type: Ship. MMSI: 310456000.

Date/timePositionNaut miles runAvg speedWind from/ knotsBaromVisibWave heightAir tempDewpointWater temp
2016-Oct-22 00:32N 27°11' W 015°54'5016.7
2016-Oct-21 21:33N 27°50' W 015°19'19 3.0
2016-Oct-21 15:09N 28°08' W 015°25'0 0.0
2016-Oct-21 14:27N 28°08' W 015°25'0 0.0
2016-Oct-21 13:24N 28°08' W 015°25'0 0.0
2016-Oct-21 09:33N 28°08' W 015°25'0 0.0
2016-Oct-21 08:33N 28°08' W 015°25'0 0.0
2016-Oct-21 06:33N 28°08' W 015°25'51 8.5
2016-Oct-21 00:33N 28°33' W 014°35'2311.5
2016-Oct-20 22:33N 28°45' W 014°12'2311.5
2016-Oct-20 20:33N 28°49' W 013°46'15 3.1
2016-Oct-20 15:33N 28°58' W 013°32'0 0.0
2016-Oct-20 12:28N 28°58' W 013°32'0 0.0
2016-Oct-20 11:28N 28°58' W 013°32'0 0.0
2016-Oct-20 10:31N 28°58' W 013°32'4 4.1
2016-Oct-20 09:33N 28°58' W 013°28'1312.7
2016-Oct-20 08:30N 29°07' W 013°17'2512.6
2016-Oct-20 06:32N 29°25' W 012°57'2512.5
2016-Oct-20 04:33N 29°44' W 012°38'5614.0
2016-Oct-20 00:33N 30°28' W 011°57'3417.0
2016-Oct-19 22:33N 30°54' W 011°32'3417.2
2016-Oct-19 20:33N 31°21' W 011°07'1817.5
2016-Oct-19 19:33N 31°34' W 010°54'5116.9
2016-Oct-19 16:33N 32°13' W 010°16'1716.8
2016-Oct-19 15:34N 32°26' W 010°04'1816.7
2016-Oct-19 14:29N 32°40' W 009°50'3316.9
2016-Oct-19 12:33N 33°05' W 009°25'18816.9
2016-Oct-19 01:28N 35°25' W 006°54'7116.1
2016-Oct-18 21:03N 35°57' W 005°36'14218.8
2016-Oct-18 13:29N 36°23' W 002°43'11218.9
2016-Oct-18 07:33N 37°25' W 000°47'1817.7
2016-Oct-18 06:31N 37°38' W 000°30'7017.4
2016-Oct-18 02:30N 38°30' E 000°29'11616.6
2016-Oct-17 19:33N 39°51' E 002°16'5117.0
2016-Oct-17 16:33N 40°24' E 003°06'1717.3
2016-Oct-17 15:33N 40°36' E 003°23'33515.2
2016-Oct-16 17:31N 44°25' E 008°55'0 0.0
2016-Oct-16 14:31N 44°25' E 008°55'0 0.0
2016-Oct-16 12:31N 44°25' E 008°55'0 0.0
2016-Oct-16 11:19N 44°25' E 008°55'0 0.0
2016-Oct-16 10:28N 44°25' E 008°55'0 0.0
2016-Oct-16 09:28N 44°25' E 008°55'2 0.4
2016-Oct-16 05:33N 44°23' E 008°56'5 4.8
2016-Oct-16 04:34N 44°19' E 008°58'2311.5
2016-Oct-16 02:33N 44°01' E 008°39'1312.6
2016-Oct-16 01:33N 43°51' E 008°27'12813.9
2016-Oct-15 16:22N 42°38' E 006°04'233 6.2
2016-Oct-14 02:33N 40°15' E 001°59'6616.6
2016-Oct-13 22:33N 39°10' E 001°47'1515.2
2016-Oct-13 21:33N 38°56' E 001°37'155 7.4
2016-Oct-13 00:33N 37°11' W 000°47'8016.0
2016-Oct-12 19:33N 36°43' W 002°21'7 7.0
2016-Oct-12 18:34N 36°47' W 002°29'2019.6
2016-Oct-12 17:33N 36°28' W 002°38'  
Track history (hours):
 
Tides and Currents Weather Stations Pressure Air Temp Water Temp Dewpoint Dewpoint Depression Visibility Wind Speed Wind Dir Waves Ship Positions

Artemis

Ex "Royal Princess".

Last reported at 2016-Oct-22 00:32 UTC. Time now 2017-Mar-25 19:38 UTC.
Position N 27°11' W 015°54'.
Warning: this ship's position is months out of date.

Length 230.6 m; beam 29.2 m; draft 8 m.

Type: Ship. MMSI: 310456000.

Date/timePositionNaut miles runAvg speedWind from/ knotsBaromVisibWave heightAir tempDewpointWater temp
2016-Oct-22 00:32N 27°11' W 015°54'5016.7
2016-Oct-21 21:33N 27°50' W 015°19'19 3.0
2016-Oct-21 15:09N 28°08' W 015°25'0 0.0
2016-Oct-21 14:27N 28°08' W 015°25'0 0.0
2016-Oct-21 13:24N 28°08' W 015°25'0 0.0
2016-Oct-21 09:33N 28°08' W 015°25'0 0.0
2016-Oct-21 08:33N 28°08' W 015°25'0 0.0
2016-Oct-21 06:33N 28°08' W 015°25'51 8.5
2016-Oct-21 00:33N 28°33' W 014°35'2311.5
2016-Oct-20 22:33N 28°45' W 014°12'2311.5
2016-Oct-20 20:33N 28°49' W 013°46'15 3.1
2016-Oct-20 15:33N 28°58' W 013°32'0 0.0
2016-Oct-20 12:28N 28°58' W 013°32'0 0.0
2016-Oct-20 11:28N 28°58' W 013°32'0 0.0
2016-Oct-20 10:31N 28°58' W 013°32'4 4.1
2016-Oct-20 09:33N 28°58' W 013°28'1312.7
2016-Oct-20 08:30N 29°07' W 013°17'2512.6
2016-Oct-20 06:32N 29°25' W 012°57'2512.5
2016-Oct-20 04:33N 29°44' W 012°38'5614.0
2016-Oct-20 00:33N 30°28' W 011°57'3417.0
2016-Oct-19 22:33N 30°54' W 011°32'3417.2
2016-Oct-19 20:33N 31°21' W 011°07'1817.5
2016-Oct-19 19:33N 31°34' W 010°54'5116.9
2016-Oct-19 16:33N 32°13' W 010°16'1716.8
2016-Oct-19 15:34N 32°26' W 010°04'1816.7
2016-Oct-19 14:29N 32°40' W 009°50'3316.9
2016-Oct-19 12:33N 33°05' W 009°25'18816.9
2016-Oct-19 01:28N 35°25' W 006°54'7116.1
2016-Oct-18 21:03N 35°57' W 005°36'14218.8
2016-Oct-18 13:29N 36°23' W 002°43'11218.9
2016-Oct-18 07:33N 37°25' W 000°47'1817.7
2016-Oct-18 06:31N 37°38' W 000°30'7017.4
2016-Oct-18 02:30N 38°30' E 000°29'11616.6
2016-Oct-17 19:33N 39°51' E 002°16'5117.0
2016-Oct-17 16:33N 40°24' E 003°06'1717.3
2016-Oct-17 15:33N 40°36' E 003°23'33515.2
2016-Oct-16 17:31N 44°25' E 008°55'0 0.0
2016-Oct-16 14:31N 44°25' E 008°55'0 0.0
2016-Oct-16 12:31N 44°25' E 008°55'0 0.0
2016-Oct-16 11:19N 44°25' E 008°55'0 0.0
2016-Oct-16 10:28N 44°25' E 008°55'0 0.0
2016-Oct-16 09:28N 44°25' E 008°55'2 0.4
2016-Oct-16 05:33N 44°23' E 008°56'5 4.8
2016-Oct-16 04:34N 44°19' E 008°58'2311.5
2016-Oct-16 02:33N 44°01' E 008°39'1312.6
2016-Oct-16 01:33N 43°51' E 008°27'12813.9
2016-Oct-15 16:22N 42°38' E 006°04'233 6.2
2016-Oct-14 02:33N 40°15' E 001°59'6616.6
2016-Oct-13 22:33N 39°10' E 001°47'1515.2
2016-Oct-13 21:33N 38°56' E 001°37'155 7.4
2016-Oct-13 00:33N 37°11' W 000°47'8016.0
2016-Oct-12 19:33N 36°43' W 002°21'7 7.0
2016-Oct-12 18:34N 36°47' W 002°29'2019.6
2016-Oct-12 17:33N 36°28' W 002°38'  

Dump ship's entire track history